createdAt,value
2022-12-19T00:01:18.691Z,102048.66
2022-12-19T00:03:47.557Z,102038.75
2022-12-19T00:06:16.225Z,102029.06
2022-12-19T00:08:45.280Z,102023.53
2022-12-19T00:11:14.549Z,102017.34
2022-12-19T00:13:43.957Z,102018.19
2022-12-19T00:16:14.314Z,102009.56
2022-12-19T00:18:43.280Z,102006.84
2022-12-19T00:21:12.567Z,102009.41
2022-12-19T00:23:40.575Z,101995.94
2022-12-19T00:26:10.412Z,101991.66
2022-12-19T00:28:38.315Z,101988.03
2022-12-19T00:31:08.339Z,101979.81
2022-12-19T00:33:37.876Z,101988.88
2022-12-19T00:36:13.372Z,101975.50
2022-12-19T00:38:42.827Z,101989.50
2022-12-19T00:41:11.458Z,101982.31
2022-12-19T00:43:40.033Z,101989.78
2022-12-19T00:46:12.013Z,101999.94
2022-12-19T00:48:40.019Z,101992.22
2022-12-19T00:51:09.777Z,101992.28
2022-12-19T00:53:37.986Z,101978.19
2022-12-19T00:56:07.848Z,101975.09
2022-12-19T00:58:36.029Z,101981.53
2022-12-19T01:01:07.322Z,101974.22
2022-12-19T01:03:36.960Z,101985.97
2022-12-19T01:06:05.356Z,101968.75
2022-12-19T01:08:33.654Z,101976.81
2022-12-19T01:11:01.590Z,101969.47
2022-12-19T01:13:30.304Z,101974.88
2022-12-19T01:15:58.343Z,101970.31
2022-12-19T01:18:26.322Z,101972.09
2022-12-19T01:20:55.587Z,101973.00
2022-12-19T01:23:23.517Z,101969.34
2022-12-19T01:25:54.284Z,101957.88
2022-12-19T01:28:22.226Z,101953.69
2022-12-19T01:30:51.089Z,101951.84
2022-12-19T01:33:21.148Z,101944.56
2022-12-19T01:35:49.378Z,101942.03
2022-12-19T01:38:20.723Z,101948.66
2022-12-19T01:40:52.997Z,101941.75
2022-12-19T01:43:21.177Z,101933.63
2022-12-19T01:45:49.669Z,101934.38
2022-12-19T01:48:22.018Z,101933.63
2022-12-19T01:51:00.623Z,101928.25
2022-12-19T01:53:35.011Z,101909.88
2022-12-19T01:56:09.707Z,101914.28
2022-12-19T01:58:40.454Z,101915.88
2022-12-19T02:01:08.470Z,101913.28
2022-12-19T02:03:38.568Z,101907.97
2022-12-19T02:06:07.782Z,101900.94
2022-12-19T02:08:37.701Z,101907.00
2022-12-19T02:11:05.784Z,101904.56
2022-12-19T02:13:34.000Z,101896.38
2022-12-19T02:16:07.127Z,101892.84
2022-12-19T02:18:41.262Z,101890.34
2022-12-19T02:21:24.307Z,101876.06
2022-12-19T02:24:18.886Z,101877.81
2022-12-19T02:26:58.344Z,101878.69
2022-12-19T02:29:52.547Z,101870.75
2022-12-19T02:32:24.223Z,101882.31
2022-12-19T02:34:57.895Z,101880.66
2022-12-19T02:37:29.331Z,101890.31
2022-12-19T02:40:04.362Z,101884.16
2022-12-19T02:42:34.922Z,101878.59
2022-12-19T02:45:04.163Z,101874.41
2022-12-19T02:47:34.284Z,101868.94
2022-12-19T02:50:02.954Z,101867.06
2022-12-19T02:52:46.295Z,101860.97
2022-12-19T02:55:16.975Z,101859.28
2022-12-19T02:58:03.514Z,101854.66
2022-12-19T03:00:32.224Z,101859.91
2022-12-19T03:03:07.269Z,101861.66
2022-12-19T03:05:42.303Z,101858.00
2022-12-19T03:08:17.693Z,101851.84
2022-12-19T03:10:48.456Z,101847.41
2022-12-19T03:13:20.062Z,101844.97
2022-12-19T03:15:48.186Z,101844.69
2022-12-19T03:18:17.483Z,101846.47
2022-12-19T03:20:48.886Z,101842.81
2022-12-19T03:23:17.347Z,101839.63
2022-12-19T03:25:48.376Z,101835.88
2022-12-19T03:28:21.052Z,101832.59
2022-12-19T03:30:49.490Z,101832.97
2022-12-19T03:33:20.640Z,101845.56
2022-12-19T03:35:50.495Z,101836.50
2022-12-19T03:38:19.644Z,101836.34
2022-12-19T03:40:48.029Z,101832.06
2022-12-19T03:43:16.868Z,101825.31
2022-12-19T03:45:49.422Z,101818.84
2022-12-19T03:48:23.516Z,101824.78
2022-12-19T03:50:57.218Z,101830.94
2022-12-19T03:53:34.902Z,101833.84
2022-12-19T03:56:07.976Z,101832.00
2022-12-19T03:58:39.575Z,101827.22
2022-12-19T04:01:07.835Z,101826.25
2022-12-19T04:03:37.229Z,101824.56
2022-12-19T04:06:06.416Z,101815.53
2022-12-19T04:08:35.320Z,101810.22
2022-12-19T04:11:06.601Z,101803.25
2022-12-19T04:13:39.125Z,101805.00
2022-12-19T04:16:13.203Z,101788.19
2022-12-19T04:18:47.787Z,101795.06
2022-12-19T04:21:19.109Z,101792.28
2022-12-19T04:23:49.127Z,101790.56
2022-12-19T04:26:18.165Z,101786.06
2022-12-19T04:28:52.001Z,101785.31
2022-12-19T04:31:21.691Z,101770.97
2022-12-19T04:33:51.145Z,101767.44
2022-12-19T04:36:19.169Z,101762.84
2022-12-19T04:38:47.152Z,101757.22
2022-12-19T04:41:15.145Z,101749.00
2022-12-19T04:43:43.054Z,101751.81
2022-12-19T04:46:11.000Z,101742.94
2022-12-19T04:48:39.189Z,101740.22
2022-12-19T04:51:08.620Z,101743.69
2022-12-19T04:53:36.867Z,101742.66
2022-12-19T04:56:06.755Z,101725.75
2022-12-19T04:58:34.975Z,101731.22
2022-12-19T05:01:03.544Z,101726.00
2022-12-19T05:03:31.528Z,101723.00
2022-12-19T05:06:08.707Z,101715.69
2022-12-19T05:08:36.859Z,101708.03
2022-12-19T05:11:05.705Z,101707.03
2022-12-19T05:13:33.877Z,101699.13
2022-12-19T05:16:03.271Z,101688.41
2022-12-19T05:18:31.729Z,101697.03
2022-12-19T05:21:00.032Z,101690.66
2022-12-19T05:23:29.852Z,101686.84
2022-12-19T05:25:58.847Z,101690.31
2022-12-19T05:28:26.836Z,101677.91
2022-12-19T05:31:04.169Z,101671.41
2022-12-19T05:33:32.222Z,101679.66
2022-12-19T05:36:00.130Z,101671.91
2022-12-19T05:38:30.053Z,101668.69
2022-12-19T05:40:57.953Z,101678.94
2022-12-19T05:43:25.878Z,101675.63
2022-12-19T05:45:53.826Z,101689.41
2022-12-19T05:48:21.718Z,101683.53
2022-12-19T05:50:50.390Z,101687.59
2022-12-19T05:53:21.911Z,101689.84
2022-12-19T05:55:54.234Z,101668.53
2022-12-19T05:58:22.130Z,101654.75
2022-12-19T06:00:50.077Z,101660.19
2022-12-19T06:03:18.105Z,101675.84
2022-12-19T06:05:46.458Z,101666.94
2022-12-19T06:08:14.351Z,101658.94
2022-12-19T06:10:42.251Z,101654.38
2022-12-19T06:13:11.567Z,101644.00
2022-12-19T06:15:39.482Z,101651.84
2022-12-19T06:18:07.871Z,101657.69
2022-12-19T06:20:35.798Z,101653.41
2022-12-19T06:23:03.786Z,101649.63
2022-12-19T06:25:31.701Z,101647.09
2022-12-19T06:27:59.616Z,101647.94
2022-12-19T06:30:28.938Z,101640.25
2022-12-19T06:32:56.867Z,101647.09
2022-12-19T06:35:24.864Z,101650.19
2022-12-19T06:37:55.351Z,101640.88
2022-12-19T06:40:44.560Z,101642.22
2022-12-19T06:43:12.603Z,101645.22
2022-12-19T06:45:41.919Z,101633.69
2022-12-19T06:48:09.820Z,101641.81
2022-12-19T06:50:37.706Z,101644.13
2022-12-19T06:53:06.939Z,101638.91
2022-12-19T06:55:37.235Z,101648.25
2022-12-19T06:58:05.543Z,101631.44
2022-12-19T07:00:36.598Z,101635.84
2022-12-19T07:03:08.021Z,101625.94
2022-12-19T07:05:36.063Z,101624.03
2022-12-19T07:08:04.311Z,101627.41
2022-12-19T07:10:32.313Z,101633.34
2022-12-19T07:13:00.263Z,101630.75
2022-12-19T07:15:28.539Z,101633.44
2022-12-19T07:17:56.447Z,101635.50
2022-12-19T07:20:25.816Z,101636.78
2022-12-19T07:22:54.304Z,101618.22
2022-12-19T07:25:22.214Z,101614.63
2022-12-19T07:27:50.542Z,101616.84
2022-12-19T07:30:18.824Z,101615.75
2022-12-19T07:32:46.736Z,101624.38
2022-12-19T07:35:15.879Z,101622.28
2022-12-19T07:37:45.563Z,101616.44
2022-12-19T07:40:13.987Z,101626.31
2022-12-19T07:42:41.984Z,101621.06
2022-12-19T07:45:10.669Z,101630.56
2022-12-19T07:47:38.626Z,101634.03
2022-12-19T07:50:07.169Z,101640.09
2022-12-19T07:52:35.117Z,101647.31
2022-12-19T07:55:04.482Z,101637.59
2022-12-19T07:57:32.376Z,101647.09
2022-12-19T08:00:00.346Z,101640.69
2022-12-19T08:02:28.414Z,101646.41
2022-12-19T08:04:56.434Z,101652.81
2022-12-19T08:07:24.357Z,101642.91
2022-12-19T08:09:52.330Z,101644.72
2022-12-19T08:12:21.655Z,101638.59
2022-12-19T08:14:52.778Z,101639.16
2022-12-19T08:17:23.503Z,101636.78
2022-12-19T08:19:51.432Z,101639.28
2022-12-19T08:22:19.431Z,101633.94
2022-12-19T08:24:47.525Z,101635.72
2022-12-19T08:27:17.186Z,101627.63
2022-12-19T08:29:47.536Z,101632.13
2022-12-19T08:32:20.755Z,101629.25
2022-12-19T08:34:49.719Z,101627.47
2022-12-19T08:37:17.794Z,101626.81
2022-12-19T08:39:45.747Z,101628.31
2022-12-19T08:42:13.679Z,101622.94
2022-12-19T08:44:41.589Z,101620.44
2022-12-19T08:47:11.116Z,101623.13
2022-12-19T08:49:39.038Z,101623.72
2022-12-19T08:52:07.010Z,101626.41
2022-12-19T08:54:35.042Z,101626.41
2022-12-19T08:57:02.959Z,101628.19
2022-12-19T08:59:32.148Z,101629.88
2022-12-19T09:02:01.073Z,101636.06
2022-12-19T09:05:22.949Z,101636.78
2022-12-19T09:07:18.872Z,101633.63
2022-12-19T09:09:46.812Z,101629.59
2022-12-19T09:12:16.069Z,101624.94
2022-12-19T09:14:44.731Z,101631.41
2022-12-19T09:17:12.753Z,101628.31
2022-12-19T09:19:44.320Z,101621.13
2022-12-19T09:22:16.124Z,101625.25
2022-12-19T09:24:44.149Z,101623.69
2022-12-19T09:27:12.241Z,101614.41
2022-12-19T09:29:41.371Z,101627.03
2022-12-19T09:32:09.285Z,101627.03
2022-12-19T09:34:39.149Z,101623.47
2022-12-19T09:37:10.367Z,101618.78
2022-12-19T09:39:44.413Z,101620.22
2022-12-19T09:42:40.601Z,101622.38
2022-12-19T09:45:32.867Z,101616.19
2022-12-19T09:48:02.404Z,101626.31
2022-12-19T09:50:45.327Z,101621.34
2022-12-19T09:53:21.118Z,101616.47
2022-12-19T09:55:49.612Z,101613.47
2022-12-19T09:58:25.810Z,101617.03
2022-12-19T10:01:00.237Z,101604.88
2022-12-19T10:03:32.282Z,101605.09
2022-12-19T10:07:11.876Z,101606.56
2022-12-19T10:10:34.079Z,101602.28
2022-12-19T10:12:42.398Z,101610.56
2022-12-19T10:14:58.410Z,101600.28
2022-12-19T10:17:32.853Z,101607.78
2022-12-19T10:20:14.185Z,101600.63
2022-12-19T10:22:51.672Z,101598.97
2022-12-19T10:25:41.542Z,101594.19
2022-12-19T10:28:20.471Z,101585.69
2022-12-19T10:30:53.848Z,101590.38
2022-12-19T10:33:28.116Z,101585.16
2022-12-19T10:36:02.288Z,101584.72
2022-12-19T10:38:35.608Z,101583.25
2022-12-19T10:41:16.848Z,101580.97
2022-12-19T10:43:52.281Z,101578.59
2022-12-19T10:46:24.807Z,101577.38
2022-12-19T10:48:53.142Z,101578.56
2022-12-19T10:51:24.538Z,101570.19
2022-12-19T10:53:55.259Z,101573.81
2022-12-19T10:56:31.705Z,101578.56
2022-12-19T10:59:05.648Z,101573.34
2022-12-19T11:01:40.005Z,101568.66
2022-12-19T11:04:27.823Z,101560.44
2022-12-19T11:07:07.425Z,101561.09
2022-12-19T11:09:38.348Z,101558.81
2022-12-19T11:16:25.618Z,101559.13
2022-12-19T11:19:57.307Z,101550.34
2022-12-19T11:28:24.504Z,101552.38
2022-12-19T11:29:25.823Z,101552.53
2022-12-19T11:30:39.082Z,101545.25
2022-12-19T11:30:41.124Z,101547.84
2022-12-19T11:32:41.091Z,101548.44
2022-12-19T11:35:19.919Z,101549.22
2022-12-19T11:37:55.562Z,101542.28
2022-12-19T11:40:32.612Z,101544.41
2022-12-19T11:43:42.476Z,101539.22
2022-12-19T11:45:58.207Z,101543.16
2022-12-19T11:48:36.498Z,101538.91
2022-12-19T11:51:08.411Z,101536.03
2022-12-19T11:53:46.985Z,101531.13
2022-12-19T11:56:17.978Z,101531.94
2022-12-19T11:58:47.746Z,101532.56
2022-12-19T12:01:23.934Z,101537.78
2022-12-19T12:04:15.025Z,101530.59
2022-12-19T12:06:53.906Z,101534.41
2022-12-19T12:12:24.918Z,101535.97
2022-12-19T12:18:25.575Z,101532.38
2022-12-19T12:30:08.242Z,101523.69
2022-12-19T12:31:00.652Z,101523.84
2022-12-19T12:31:10.256Z,101522.22
2022-12-19T12:31:44.387Z,101522.53
2022-12-19T12:31:58.651Z,101530.47
2022-12-19T12:32:06.050Z,101512.56
2022-12-19T12:35:50.921Z,101509.03
2022-12-19T12:38:13.555Z,101515.25
2022-12-19T12:39:41.005Z,101512.91
2022-12-19T12:42:19.531Z,101505.31
2022-12-19T12:45:25.990Z,101494.97
2022-12-19T12:47:54.577Z,101502.56
2022-12-19T12:50:24.775Z,101494.34
2022-12-19T12:52:55.377Z,101496.97
2022-12-19T12:55:28.856Z,101502.97
2022-12-19T12:57:56.980Z,101496.81
2022-12-19T13:00:27.228Z,101498.22
2022-12-19T13:02:58.034Z,101496.97
2022-12-19T13:05:53.754Z,101490.72
2022-12-19T13:08:38.743Z,101493.78
2022-12-19T13:11:35.165Z,101476.44
2022-12-19T13:14:03.415Z,101485.50
2022-12-19T13:16:53.199Z,101481.34
2022-12-19T13:19:28.350Z,101494.19
2022-12-19T13:22:19.575Z,101483.69
2022-12-19T13:24:50.164Z,101488.00
2022-12-19T13:27:36.771Z,101484.75
2022-12-19T13:30:20.479Z,101490.78
2022-12-19T13:33:12.684Z,101495.03
2022-12-19T13:39:41.956Z,101493.69
2022-12-19T13:39:48.418Z,101491.41
2022-12-19T13:41:47.310Z,101498.41
2022-12-19T13:44:20.208Z,101491.09
2022-12-19T13:46:48.751Z,101492.28
2022-12-19T13:49:20.261Z,101495.59
2022-12-19T13:51:49.834Z,101502.63
2022-12-19T13:54:23.064Z,101502.53
2022-12-19T13:56:52.207Z,101496.69
2022-12-19T13:59:23.279Z,101495.53
2022-12-19T14:01:53.268Z,101492.28
2022-12-19T14:04:28.914Z,101491.72
2022-12-19T14:07:00.659Z,101491.16
2022-12-19T14:11:26.021Z,101490.34
2022-12-19T14:13:43.231Z,101484.84
2022-12-19T14:15:30.912Z,101485.03
2022-12-19T14:18:41.792Z,101481.66
2022-12-19T14:22:03.625Z,101475.13
2022-12-19T14:23:43.543Z,101480.53
2022-12-19T14:28:19.528Z,101487.06
2022-12-19T14:29:07.004Z,101492.91
2022-12-19T14:31:38.862Z,101493.16
2022-12-19T14:34:47.268Z,101490.88
2022-12-19T14:39:18.412Z,101502.13
2022-12-19T14:40:26.913Z,101502.63
2022-12-19T14:43:56.472Z,101500.50
2022-12-19T14:54:01.419Z,101504.81
2022-12-19T14:54:02.602Z,101494.59
2022-12-19T14:54:40.480Z,101503.94
2022-12-19T14:56:08.173Z,101497.69
2022-12-19T14:58:52.379Z,101498.66
2022-12-19T15:01:24.660Z,101494.28
2022-12-19T15:04:51.738Z,101498.75
2022-12-19T15:07:08.176Z,101503.66
2022-12-19T15:11:03.469Z,101496.66
2022-12-19T15:14:51.838Z,101493.56
2022-12-19T15:15:45.659Z,101498.28
2022-12-19T15:18:23.232Z,101489.34
2022-12-19T15:20:51.786Z,101489.50
2022-12-19T15:23:22.815Z,101491.75
2022-12-19T15:26:08.249Z,101494.25
2022-12-19T15:28:40.077Z,101495.59
2022-12-19T15:31:15.718Z,101489.69
2022-12-19T15:34:07.126Z,101491.16
2022-12-19T15:36:32.033Z,101486.56
2022-12-19T15:39:02.524Z,101485.63
2022-12-19T15:41:31.231Z,101484.56
2022-12-19T15:44:04.588Z,101467.94
2022-12-19T15:46:34.040Z,101467.31
2022-12-19T15:49:02.736Z,101473.81
2022-12-19T15:52:03.268Z,101471.88
2022-12-19T15:59:05.253Z,101467.38
2022-12-19T16:01:33.819Z,101466.34
2022-12-19T16:04:03.538Z,101469.41
2022-12-19T16:06:31.616Z,101462.84
2022-12-19T16:08:59.808Z,101457.59
2022-12-19T16:11:27.761Z,101458.16
2022-12-19T16:13:57.288Z,101459.75
2022-12-19T16:16:26.870Z,101451.41
2022-12-19T16:18:55.107Z,101457.16
2022-12-19T16:21:31.482Z,101452.81
2022-12-19T16:24:01.742Z,101455.88
2022-12-19T16:26:33.514Z,101453.72
2022-12-19T16:29:01.967Z,101453.13
2022-12-19T16:31:31.763Z,101452.09
2022-12-19T16:34:00.410Z,101449.03
2022-12-19T16:36:28.620Z,101453.00
2022-12-19T16:38:56.518Z,101438.28
2022-12-19T16:41:25.845Z,101447.75
2022-12-19T16:43:54.119Z,101458.81
2022-12-19T16:46:26.424Z,101454.88
2022-12-19T16:48:55.823Z,101445.47
2022-12-19T16:51:25.920Z,101446.00
2022-12-19T16:53:57.627Z,101440.84
2022-12-19T16:56:27.679Z,101453.59
2022-12-19T16:58:57.000Z,101454.09
2022-12-19T17:01:25.104Z,101453.16
2022-12-19T17:03:53.112Z,101450.31
2022-12-19T17:06:23.962Z,101456.97
2022-12-19T17:08:51.934Z,101456.09
2022-12-19T17:11:21.818Z,101461.97
2022-12-19T17:13:50.758Z,101457.31
2022-12-19T17:16:18.937Z,101456.28
2022-12-19T17:18:47.413Z,101452.38
2022-12-19T17:21:17.938Z,101452.63
2022-12-19T17:23:47.429Z,101442.66
2022-12-19T17:26:18.018Z,101458.63
2022-12-19T17:28:48.176Z,101453.03
2022-12-19T17:31:22.401Z,101453.75
2022-12-19T17:33:50.657Z,101453.25
2022-12-19T17:36:24.840Z,101447.75
2022-12-19T17:38:55.540Z,101466.00
2022-12-19T17:41:23.471Z,101457.38
2022-12-19T17:43:51.549Z,101457.13
2022-12-19T17:46:20.660Z,101462.81
2022-12-19T17:48:51.324Z,101459.47
2022-12-19T17:51:20.211Z,101464.81
2022-12-19T17:53:49.525Z,101459.22
2022-12-19T17:56:20.544Z,101440.28
2022-12-19T17:58:48.544Z,101438.34
2022-12-19T18:01:21.048Z,101446.78
2022-12-19T18:03:49.384Z,101449.81
2022-12-19T18:06:17.533Z,101440.59
2022-12-19T18:08:45.913Z,101446.38
2022-12-19T18:11:20.619Z,101433.59
2022-12-19T18:13:48.944Z,101436.84
2022-12-19T18:16:19.600Z,101425.69
2022-12-19T18:18:48.069Z,101430.22
2022-12-19T18:21:18.880Z,101434.38
2022-12-19T18:23:46.950Z,101428.34
2022-12-19T18:26:15.415Z,101425.00
2022-12-19T18:28:44.992Z,101431.38
2022-12-19T18:31:15.590Z,101429.75
2022-12-19T18:33:46.551Z,101415.44
2022-12-19T18:36:19.331Z,101420.63
2022-12-19T18:38:48.727Z,101435.25
2022-12-19T18:41:18.576Z,101426.53
2022-12-19T18:43:48.488Z,101433.56
2022-12-19T18:46:18.764Z,101446.84
2022-12-19T18:48:47.069Z,101442.78
2022-12-19T18:51:16.665Z,101445.78
2022-12-19T18:53:45.625Z,101450.63
2022-12-19T18:56:13.595Z,101440.78
2022-12-19T18:58:41.689Z,101428.97
2022-12-19T19:01:15.489Z,101439.75
2022-12-19T19:03:53.429Z,101443.78
2022-12-19T19:06:22.943Z,101442.16
2022-12-19T19:08:52.088Z,101430.38
2022-12-19T19:11:23.434Z,101426.31
2022-12-19T19:13:51.839Z,101430.03
2022-12-19T19:16:22.804Z,101416.78
2022-12-19T19:18:56.600Z,101418.25
2022-12-19T19:21:26.890Z,101421.69
2022-12-19T19:24:00.803Z,101423.16
2022-12-19T19:26:29.975Z,101422.28
2022-12-19T19:28:57.933Z,101429.28
2022-12-19T19:31:29.855Z,101417.41
2022-12-19T19:34:02.186Z,101413.91
2022-12-19T19:36:32.500Z,101415.44
2022-12-19T19:39:00.454Z,101405.19
2022-12-19T19:41:33.015Z,101413.69
2022-12-19T19:44:01.427Z,101403.38
2022-12-19T19:46:31.091Z,101403.31
2022-12-19T19:49:02.310Z,101407.06
2022-12-19T19:51:30.236Z,101415.38
2022-12-19T19:53:58.158Z,101415.72
2022-12-19T19:56:26.141Z,101404.72
2022-12-19T19:58:55.297Z,101405.88
2022-12-19T20:01:23.350Z,101405.06
2022-12-19T20:03:52.735Z,101412.78
2022-12-19T20:06:21.976Z,101411.00
2022-12-19T20:08:50.459Z,101404.81
2022-12-19T20:11:20.478Z,101409.78
2022-12-19T20:13:48.415Z,101393.63
2022-12-19T20:16:18.819Z,101386.19
2022-12-19T20:18:49.466Z,101387.19
2022-12-19T20:21:19.776Z,101376.47
2022-12-19T20:23:47.892Z,101374.88
2022-12-19T20:26:16.775Z,101374.88
2022-12-19T20:28:49.091Z,101371.91
2022-12-19T20:31:18.928Z,101374.31
2022-12-19T20:33:48.442Z,101375.16
2022-12-19T20:36:18.080Z,101379.09
2022-12-19T20:38:46.397Z,101374.97
2022-12-19T20:41:14.459Z,101372.06
2022-12-19T20:43:42.508Z,101376.53
2022-12-19T20:46:12.256Z,101371.50
2022-12-19T20:48:40.356Z,101364.41
2022-12-19T20:51:08.738Z,101358.44
2022-12-19T20:53:39.161Z,101357.75
2022-12-19T20:56:09.255Z,101352.06
2022-12-19T20:58:38.716Z,101364.13
2022-12-19T21:01:08.493Z,101359.22
2022-12-19T21:03:37.300Z,101360.03
2022-12-19T21:06:05.944Z,101358.81
2022-12-19T21:08:33.957Z,101366.75
2022-12-19T21:11:03.885Z,101356.19
2022-12-19T21:13:31.968Z,101352.38
2022-12-19T21:16:02.936Z,101358.44
2022-12-19T21:18:31.197Z,101345.06
2022-12-19T21:21:00.134Z,101352.06
2022-12-19T21:23:28.756Z,101353.44
2022-12-19T21:25:58.975Z,101349.09
2022-12-19T21:28:28.854Z,101335.31
2022-12-19T21:30:57.847Z,101339.47
2022-12-19T21:33:25.800Z,101326.19
2022-12-19T21:35:53.719Z,101333.91
2022-12-19T21:38:22.008Z,101341.53
2022-12-19T21:40:49.952Z,101331.31
2022-12-19T21:43:17.848Z,101326.94
2022-12-19T21:45:47.277Z,101331.84
2022-12-19T21:48:15.182Z,101326.66
2022-12-19T21:50:43.095Z,101332.56
2022-12-19T21:53:10.995Z,101339.94
2022-12-19T21:55:38.918Z,101331.69
2022-12-19T21:58:06.811Z,101326.19
2022-12-19T22:00:34.838Z,101319.69
2022-12-19T22:03:19.581Z,101307.38
2022-12-19T22:05:47.560Z,101300.22
2022-12-19T22:08:15.448Z,101310.09
2022-12-19T22:10:44.118Z,101307.47
2022-12-19T22:13:12.045Z,101309.50
2022-12-19T22:15:40.098Z,101302.31
2022-12-19T22:18:09.508Z,101302.31
2022-12-19T22:20:42.138Z,101303.59
2022-12-19T22:23:13.569Z,101296.94
2022-12-19T22:25:42.051Z,101293.25
2022-12-19T22:28:09.953Z,101299.03
2022-12-19T22:30:37.899Z,101291.91
2022-12-19T22:33:05.965Z,101294.22
2022-12-19T22:35:35.929Z,101300.22
2022-12-19T22:38:04.221Z,101298.47
2022-12-19T22:40:33.191Z,101296.44
2022-12-19T22:43:01.087Z,101292.63
2022-12-19T22:45:31.373Z,101303.31
2022-12-19T22:47:59.320Z,101304.97
2022-12-19T22:50:27.326Z,101297.00
2022-12-19T22:52:56.933Z,101300.34
2022-12-19T22:55:24.845Z,101293.19
2022-12-19T22:57:53.088Z,101288.69
2022-12-19T23:00:21.721Z,101292.22
2022-12-19T23:02:49.830Z,101281.84
2022-12-19T23:05:17.996Z,101282.34
2022-12-19T23:07:45.916Z,101276.94
2022-12-19T23:10:15.443Z,101274.16
2022-12-19T23:12:43.724Z,101270.25
2022-12-19T23:15:12.410Z,101273.69
2022-12-19T23:17:40.328Z,101263.31
2022-12-19T23:20:09.791Z,101275.03
2022-12-19T23:22:37.866Z,101269.66
2022-12-19T23:25:06.903Z,101270.59
2022-12-19T23:27:36.277Z,101278.31
2022-12-19T23:30:04.303Z,101272.25
2022-12-19T23:32:33.124Z,101266.28
2022-12-19T23:35:01.048Z,101258.91
2022-12-19T23:37:28.977Z,101260.91
2022-12-19T23:39:57.619Z,101264.63
2022-12-19T23:42:25.585Z,101258.69
2022-12-19T23:44:54.989Z,101264.94
2022-12-19T23:47:22.989Z,101256.78
2022-12-19T23:49:50.910Z,101245.06
2022-12-19T23:52:18.903Z,101243.59
2022-12-19T23:54:47.955Z,101237.00
2022-12-19T23:57:15.912Z,101239.81
2022-12-19T23:59:43.830Z,101233.91
